sensor_id;sensor_type;location;lat;lon;timestamp;pressure;altitude;pressure_sealevel;temperature;humidity
12757;BME280;31601;48.042;12.240;2023-02-15T00:01:26;97605.28;;;0.91;74.48
12757;BME280;31601;48.042;12.240;2023-02-15T00:03:54;97600.22;;;0.59;74.18
12757;BME280;31601;48.042;12.240;2023-02-15T00:06:21;97596.38;;;0.66;74.33
12757;BME280;31601;48.042;12.240;2023-02-15T00:08:48;97592.25;;;0.47;74.18
12757;BME280;31601;48.042;12.240;2023-02-15T00:11:17;97593.72;;;0.82;73.98
12757;BME280;31601;48.042;12.240;2023-02-15T00:14:04;97584.44;;;0.94;74.08
12757;BME280;31601;48.042;12.240;2023-02-15T00:16:31;97572.69;;;0.88;73.78
12757;BME280;31601;48.042;12.240;2023-02-15T00:18:59;97583.88;;;0.44;74.46
12757;BME280;31601;48.042;12.240;2023-02-15T00:21:27;97577.09;;;0.41;74.78
12757;BME280;31601;48.042;12.240;2023-02-15T00:23:54;97578.97;;;0.23;74.86
12757;BME280;31601;48.042;12.240;2023-02-15T00:26:20;97578.28;;;0.35;74.92
12757;BME280;31601;48.042;12.240;2023-02-15T00:28:46;97576.81;;;0.31;74.81
12757;BME280;31601;48.042;12.240;2023-02-15T00:31:13;97573.09;;;0.51;75.04
12757;BME280;31601;48.042;12.240;2023-02-15T00:33:39;97570.34;;;0.69;74.29
12757;BME280;31601;48.042;12.240;2023-02-15T00:36:09;97566.09;;;0.68;74.30
12757;BME280;31601;48.042;12.240;2023-02-15T00:38:36;97577.13;;;0.56;74.30
12757;BME280;31601;48.042;12.240;2023-02-15T00:41:05;97570.91;;;0.74;73.96
12757;BME280;31601;48.042;12.240;2023-02-15T00:43:33;97571.22;;;0.39;74.41
12757;BME280;31601;48.042;12.240;2023-02-15T00:46:00;97575.53;;;0.69;74.20
12757;BME280;31601;48.042;12.240;2023-02-15T00:48:26;97573.50;;;0.74;74.01
12757;BME280;31601;48.042;12.240;2023-02-15T00:50:55;97572.50;;;0.91;73.70
12757;BME280;31601;48.042;12.240;2023-02-15T00:53:23;97566.53;;;0.91;73.61
12757;BME280;31601;48.042;12.240;2023-02-15T00:55:50;97570.78;;;0.92;73.47
12757;BME280;31601;48.042;12.240;2023-02-15T00:58:16;97566.88;;;0.70;73.79
12757;BME280;31601;48.042;12.240;2023-02-15T01:00:44;97563.78;;;0.63;73.73
12757;BME280;31601;48.042;12.240;2023-02-15T01:03:12;97562.59;;;0.55;73.85
12757;BME280;31601;48.042;12.240;2023-02-15T01:05:39;97557.19;;;0.43;74.41
12757;BME280;31601;48.042;12.240;2023-02-15T01:08:06;97561.84;;;0.06;75.50
12757;BME280;31601;48.042;12.240;2023-02-15T01:10:35;97566.88;;;-0.07;75.60
12757;BME280;31601;48.042;12.240;2023-02-15T01:13:02;97560.97;;;0.38;74.77
12757;BME280;31601;48.042;12.240;2023-02-15T01:15:29;97558.06;;;0.58;74.02
12757;BME280;31601;48.042;12.240;2023-02-15T01:17:55;97559.75;;;0.74;73.85
12757;BME280;31601;48.042;12.240;2023-02-15T01:20:25;97557.19;;;0.88;73.72
12757;BME280;31601;48.042;12.240;2023-02-15T01:22:52;97555.72;;;0.98;73.54
12757;BME280;31601;48.042;12.240;2023-02-15T01:25:21;97550.75;;;0.95;73.33
12757;BME280;31601;48.042;12.240;2023-02-15T01:27:49;97547.78;;;1.01;73.39
12757;BME280;31601;48.042;12.240;2023-02-15T01:30:15;97544.44;;;0.56;73.38
12757;BME280;31601;48.042;12.240;2023-02-15T01:32:42;97539.44;;;0.53;73.95
12757;BME280;31601;48.042;12.240;2023-02-15T01:35:09;97534.66;;;0.31;74.40
12757;BME280;31601;48.042;12.240;2023-02-15T01:37:36;97530.09;;;0.50;73.57
12757;BME280;31601;48.042;12.240;2023-02-15T01:40:05;97529.84;;;0.69;73.42
12757;BME280;31601;48.042;12.240;2023-02-15T01:42:32;97524.50;;;0.58;73.83
12757;BME280;31601;48.042;12.240;2023-02-15T01:45:02;97523.69;;;0.72;73.23
12757;BME280;31601;48.042;12.240;2023-02-15T01:47:33;97519.47;;;0.85;73.12
12757;BME280;31601;48.042;12.240;2023-02-15T01:50:08;97520.75;;;0.93;72.97
12757;BME280;31601;48.042;12.240;2023-02-15T01:52:37;97514.28;;;0.85;73.22
12757;BME280;31601;48.042;12.240;2023-02-15T01:55:06;97518.44;;;0.74;73.43
12757;BME280;31601;48.042;12.240;2023-02-15T01:57:33;97513.44;;;0.85;73.26
12757;BME280;31601;48.042;12.240;2023-02-15T02:00:03;97520.84;;;0.91;73.28
12757;BME280;31601;48.042;12.240;2023-02-15T02:02:32;97528.59;;;0.77;73.51
12757;BME280;31601;48.042;12.240;2023-02-15T02:05:00;97519.06;;;0.63;73.59
12757;BME280;31601;48.042;12.240;2023-02-15T02:07:29;97519.06;;;0.77;73.53
12757;BME280;31601;48.042;12.240;2023-02-15T02:09:58;97510.41;;;0.93;73.07
12757;BME280;31601;48.042;12.240;2023-02-15T02:12:26;97509.94;;;1.00;72.88
12757;BME280;31601;48.042;12.240;2023-02-15T02:14:53;97507.84;;;1.07;72.78
12757;BME280;31601;48.042;12.240;2023-02-15T02:17:28;97508.28;;;1.14;72.74
12757;BME280;31601;48.042;12.240;2023-02-15T02:20:14;97501.06;;;1.19;72.58
12757;BME280;31601;48.042;12.240;2023-02-15T02:23:07;97501.09;;;1.04;72.86
12757;BME280;31601;48.042;12.240;2023-02-15T02:25:58;97500.09;;;1.07;72.60
12757;BME280;31601;48.042;12.240;2023-02-15T02:28:44;97491.97;;;1.13;72.50
12757;BME280;31601;48.042;12.240;2023-02-15T02:31:49;97491.50;;;1.21;72.65
12757;BME280;31601;48.042;12.240;2023-02-15T02:34:27;97490.38;;;1.11;72.32
12757;BME280;31601;48.042;12.240;2023-02-15T02:36:59;97483.44;;;1.11;72.69
12757;BME280;31601;48.042;12.240;2023-02-15T02:39:33;97485.88;;;1.00;72.53
12757;BME280;31601;48.042;12.240;2023-02-15T02:42:09;97479.66;;;0.88;73.09
12757;BME280;31601;48.042;12.240;2023-02-15T02:44:43;97478.47;;;0.94;72.78
12757;BME280;31601;48.042;12.240;2023-02-15T02:47:15;97480.75;;;1.13;72.68
12757;BME280;31601;48.042;12.240;2023-02-15T02:49:46;97473.59;;;1.18;72.40
12757;BME280;31601;48.042;12.240;2023-02-15T02:52:36;97475.63;;;0.98;72.31
12757;BME280;31601;48.042;12.240;2023-02-15T02:55:03;97471.00;;;1.03;72.33
12757;BME280;31601;48.042;12.240;2023-02-15T02:57:32;97469.44;;;0.86;72.99
12757;BME280;31601;48.042;12.240;2023-02-15T03:00:02;97466.00;;;0.57;73.31
12757;BME280;31601;48.042;12.240;2023-02-15T03:02:32;97463.81;;;0.80;72.67
12757;BME280;31601;48.042;12.240;2023-02-15T03:05:04;97469.41;;;0.43;73.39
12757;BME280;31601;48.042;12.240;2023-02-15T03:07:33;97470.91;;;0.47;73.32
12757;BME280;31601;48.042;12.240;2023-02-15T03:10:04;97473.75;;;0.57;73.19
12757;BME280;31601;48.042;12.240;2023-02-15T03:12:34;97476.34;;;0.57;73.54
12757;BME280;31601;48.042;12.240;2023-02-15T03:15:04;97472.03;;;0.58;73.34
12757;BME280;31601;48.042;12.240;2023-02-15T03:17:32;97468.91;;;0.67;73.13
12757;BME280;31601;48.042;12.240;2023-02-15T03:20:04;97474.50;;;0.74;73.13
12757;BME280;31601;48.042;12.240;2023-02-15T03:22:35;97465.91;;;0.59;73.24
12757;BME280;31601;48.042;12.240;2023-02-15T03:25:09;97471.09;;;0.59;73.00
12757;BME280;31601;48.042;12.240;2023-02-15T03:27:41;97465.91;;;0.59;73.09
12757;BME280;31601;48.042;12.240;2023-02-15T03:30:10;97466.59;;;0.77;72.79
12757;BME280;31601;48.042;12.240;2023-02-15T03:32:38;97465.41;;;0.82;72.96
12757;BME280;31601;48.042;12.240;2023-02-15T03:35:07;97458.81;;;0.91;72.47
12757;BME280;31601;48.042;12.240;2023-02-15T03:37:37;97458.53;;;0.96;72.56
12757;BME280;31601;48.042;12.240;2023-02-15T03:40:08;97454.84;;;1.00;72.54
12757;BME280;31601;48.042;12.240;2023-02-15T03:42:55;97459.00;;;1.02;72.30
12757;BME280;31601;48.042;12.240;2023-02-15T03:45:27;97452.00;;;1.04;72.19
12757;BME280;31601;48.042;12.240;2023-02-15T03:47:56;97456.16;;;1.07;72.05
12757;BME280;31601;48.042;12.240;2023-02-15T03:50:28;97459.28;;;0.83;72.66
12757;BME280;31601;48.042;12.240;2023-02-15T03:53:15;97448.66;;;0.88;72.43
12757;BME280;31601;48.042;12.240;2023-02-15T03:55:46;97453.19;;;0.56;72.25
12757;BME280;31601;48.042;12.240;2023-02-15T03:58:13;97456.53;;;0.72;72.00
12757;BME280;31601;48.042;12.240;2023-02-15T04:00:59;97451.72;;;0.51;72.72
12757;BME280;31601;48.042;12.240;2023-02-15T04:03:54;97455.41;;;0.47;73.18
12757;BME280;31601;48.042;12.240;2023-02-15T04:06:24;97453.22;;;0.70;72.76
12757;BME280;31601;48.042;12.240;2023-02-15T04:08:51;97454.84;;;0.71;72.90
12757;BME280;31601;48.042;12.240;2023-02-15T04:11:37;97451.53;;;0.55;73.17
12757;BME280;31601;48.042;12.240;2023-02-15T04:14:03;97452.81;;;0.47;73.42
12757;BME280;31601;48.042;12.240;2023-02-15T04:16:50;97441.94;;;0.42;72.96
12757;BME280;31601;48.042;12.240;2023-02-15T04:19:16;97453.34;;;0.24;73.45
12757;BME280;31601;48.042;12.240;2023-02-15T04:22:01;97459.06;;;0.29;73.34
12757;BME280;31601;48.042;12.240;2023-02-15T04:24:45;97454.97;;;0.10;73.78
12757;BME280;31601;48.042;12.240;2023-02-15T04:27:29;97461.59;;;0.00;74.30
12757;BME280;31601;48.042;12.240;2023-02-15T04:29:56;97463.19;;;-0.13;74.62
12757;BME280;31601;48.042;12.240;2023-02-15T04:32:22;97466.28;;;0.08;74.06
12757;BME280;31601;48.042;12.240;2023-02-15T04:34:48;97461.84;;;-0.05;74.22
12757;BME280;31601;48.042;12.240;2023-02-15T04:37:16;97477.28;;;0.11;73.94
12757;BME280;31601;48.042;12.240;2023-02-15T04:39:42;97476.31;;;0.28;73.48
12757;BME280;31601;48.042;12.240;2023-02-15T04:42:09;97474.00;;;0.38;73.40
12757;BME280;31601;48.042;12.240;2023-02-15T04:44:35;97481.03;;;0.50;73.00
12757;BME280;31601;48.042;12.240;2023-02-15T04:47:02;97474.97;;;0.51;73.15
12757;BME280;31601;48.042;12.240;2023-02-15T04:49:28;97474.50;;;0.59;73.10
12757;BME280;31601;48.042;12.240;2023-02-15T04:51:55;97473.13;;;0.68;72.74
12757;BME280;31601;48.042;12.240;2023-02-15T04:54:22;97476.00;;;0.78;72.71
12757;BME280;31601;48.042;12.240;2023-02-15T04:56:49;97480.13;;;0.80;72.75
12757;BME280;31601;48.042;12.240;2023-02-15T04:59:15;97478.22;;;0.84;72.62
12757;BME280;31601;48.042;12.240;2023-02-15T05:01:42;97484.47;;;0.80;72.69
12757;BME280;31601;48.042;12.240;2023-02-15T05:04:08;97483.94;;;0.89;72.52
12757;BME280;31601;48.042;12.240;2023-02-15T05:06:35;97487.06;;;0.94;72.47
12757;BME280;31601;48.042;12.240;2023-02-15T05:09:02;97483.56;;;0.81;72.16
12757;BME280;31601;48.042;12.240;2023-02-15T05:11:29;97489.69;;;0.49;73.03
12757;BME280;31601;48.042;12.240;2023-02-15T05:13:56;97490.84;;;0.60;72.66
12757;BME280;31601;48.042;12.240;2023-02-15T05:16:22;97486.84;;;0.40;73.08
12757;BME280;31601;48.042;12.240;2023-02-15T05:18:49;97480.97;;;0.52;72.75
12757;BME280;31601;48.042;12.240;2023-02-15T05:21:15;97484.19;;;0.56;72.99
12757;BME280;31601;48.042;12.240;2023-02-15T05:23:42;97478.09;;;0.71;72.72
12757;BME280;31601;48.042;12.240;2023-02-15T05:26:10;97492.13;;;0.81;72.44
12757;BME280;31601;48.042;12.240;2023-02-15T05:28:56;97491.13;;;0.84;72.62
12757;BME280;31601;48.042;12.240;2023-02-15T05:31:22;97483.28;;;0.85;72.66
12757;BME280;31601;48.042;12.240;2023-02-15T05:33:49;97491.59;;;0.91;72.73
12757;BME280;31601;48.042;12.240;2023-02-15T05:36:15;97488.47;;;0.85;72.50
12757;BME280;31601;48.042;12.240;2023-02-15T05:38:41;97491.03;;;0.71;73.04
12757;BME280;31601;48.042;12.240;2023-02-15T05:41:10;97492.06;;;0.68;73.31
12757;BME280;31601;48.042;12.240;2023-02-15T05:43:36;97498.97;;;0.82;73.12
12757;BME280;31601;48.042;12.240;2023-02-15T05:46:05;97495.38;;;0.70;73.05
12757;BME280;31601;48.042;12.240;2023-02-15T05:48:32;97500.13;;;0.48;73.18
12757;BME280;31601;48.042;12.240;2023-02-15T05:50:59;97508.13;;;0.43;73.92
12757;BME280;31601;48.042;12.240;2023-02-15T05:53:25;97503.75;;;0.29;74.10
12757;BME280;31601;48.042;12.240;2023-02-15T05:55:52;97506.31;;;0.45;73.64
12757;BME280;31601;48.042;12.240;2023-02-15T05:58:24;97506.34;;;0.74;72.91
12757;BME280;31601;48.042;12.240;2023-02-15T06:00:50;97516.84;;;0.71;73.17
12757;BME280;31601;48.042;12.240;2023-02-15T06:03:18;97513.53;;;0.83;72.94
12757;BME280;31601;48.042;12.240;2023-02-15T06:05:44;97508.94;;;0.88;72.58
12757;BME280;31601;48.042;12.240;2023-02-15T06:08:11;97508.50;;;0.96;72.58
12757;BME280;31601;48.042;12.240;2023-02-15T06:10:37;97513.25;;;0.88;72.59
12757;BME280;31601;48.042;12.240;2023-02-15T06:13:05;97511.81;;;0.84;72.92
12757;BME280;31601;48.042;12.240;2023-02-15T06:15:32;97510.59;;;1.04;72.47
12757;BME280;31601;48.042;12.240;2023-02-15T06:17:58;97510.69;;;0.88;72.48
12757;BME280;31601;48.042;12.240;2023-02-15T06:20:26;97509.84;;;1.02;72.43
12757;BME280;31601;48.042;12.240;2023-02-15T06:22:52;97516.50;;;0.92;72.34
12757;BME280;31601;48.042;12.240;2023-02-15T06:25:19;97513.00;;;0.93;72.50
12757;BME280;31601;48.042;12.240;2023-02-15T06:27:46;97522.13;;;0.98;72.26
12757;BME280;31601;48.042;12.240;2023-02-15T06:30:13;97523.97;;;0.82;72.25
12757;BME280;31601;48.042;12.240;2023-02-15T06:32:40;97514.13;;;0.88;72.20
12757;BME280;31601;48.042;12.240;2023-02-15T06:35:07;97520.84;;;0.91;72.55
12757;BME280;31601;48.042;12.240;2023-02-15T06:37:34;97516.69;;;1.03;72.01
12757;BME280;31601;48.042;12.240;2023-02-15T06:40:01;97517.50;;;1.03;71.81
12757;BME280;31601;48.042;12.240;2023-02-15T06:42:29;97515.47;;;0.94;71.80
12757;BME280;31601;48.042;12.240;2023-02-15T06:44:55;97511.06;;;0.96;72.41
12757;BME280;31601;48.042;12.240;2023-02-15T06:47:22;97516.78;;;0.87;72.23
12757;BME280;31601;48.042;12.240;2023-02-15T06:49:48;97525.34;;;1.02;71.93
12757;BME280;31601;48.042;12.240;2023-02-15T06:52:15;97526.28;;;1.15;71.65
12757;BME280;31601;48.042;12.240;2023-02-15T06:54:42;97524.44;;;1.03;71.26
12757;BME280;31601;48.042;12.240;2023-02-15T06:57:09;97524.91;;;0.95;71.42
12757;BME280;31601;48.042;12.240;2023-02-15T06:59:35;97520.94;;;1.04;71.66
12757;BME280;31601;48.042;12.240;2023-02-15T07:02:01;97518.72;;;1.12;71.47
12757;BME280;31601;48.042;12.240;2023-02-15T07:04:28;97513.66;;;0.96;71.68
12757;BME280;31601;48.042;12.240;2023-02-15T07:06:55;97525.19;;;0.91;71.81
12757;BME280;31601;48.042;12.240;2023-02-15T07:09:22;97521.28;;;0.83;71.78
12757;BME280;31601;48.042;12.240;2023-02-15T07:11:50;97517.44;;;0.91;71.97
12757;BME280;31601;48.042;12.240;2023-02-15T07:14:34;97528.50;;;0.78;71.48
12757;BME280;31601;48.042;12.240;2023-02-15T07:17:00;97531.34;;;0.74;70.97
12757;BME280;31601;48.042;12.240;2023-02-15T07:19:27;97530.81;;;0.83;71.36
12757;BME280;31601;48.042;12.240;2023-02-15T07:21:53;97524.91;;;0.95;71.21
12757;BME280;31601;48.042;12.240;2023-02-15T07:24:19;97524.72;;;0.98;71.32
12757;BME280;31601;48.042;12.240;2023-02-15T07:26:46;97527.84;;;1.03;71.55
12757;BME280;31601;48.042;12.240;2023-02-15T07:29:13;97525.09;;;1.21;71.48
12757;BME280;31601;48.042;12.240;2023-02-15T07:31:41;97520.56;;;0.96;71.15
12757;BME280;31601;48.042;12.240;2023-02-15T07:34:08;97518.00;;;1.10;71.24
12757;BME280;31601;48.042;12.240;2023-02-15T07:36:34;97519.34;;;1.16;70.68
12757;BME280;31601;48.042;12.240;2023-02-15T07:39:01;97510.59;;;1.18;70.87
12757;BME280;31601;48.042;12.240;2023-02-15T07:41:27;97516.13;;;1.41;71.00
12757;BME280;31601;48.042;12.240;2023-02-15T07:43:54;97518.97;;;1.36;70.48
12757;BME280;31601;48.042;12.240;2023-02-15T07:46:21;97516.97;;;1.69;70.29
12757;BME280;31601;48.042;12.240;2023-02-15T07:48:48;97524.75;;;1.69;70.25
12757;BME280;31601;48.042;12.240;2023-02-15T07:51:14;97519.81;;;1.78;69.77
12757;BME280;31601;48.042;12.240;2023-02-15T07:53:42;97527.81;;;1.88;69.50
12757;BME280;31601;48.042;12.240;2023-02-15T07:56:10;97525.03;;;1.91;69.16
12757;BME280;31601;48.042;12.240;2023-02-15T07:58:37;97518.44;;;2.00;68.99
12757;BME280;31601;48.042;12.240;2023-02-15T08:01:23;97528.50;;;2.05;68.99
12757;BME280;31601;48.042;12.240;2023-02-15T08:03:51;97517.75;;;1.84;68.65
12757;BME280;31601;48.042;12.240;2023-02-15T08:06:19;97518.00;;;1.93;68.19
12757;BME280;31601;48.042;12.240;2023-02-15T08:08:45;97518.22;;;1.90;67.98
12757;BME280;31601;48.042;12.240;2023-02-15T08:11:17;97519.63;;;1.82;68.55
12757;BME280;31601;48.042;12.240;2023-02-15T08:13:59;97515.06;;;1.85;68.53
12757;BME280;31601;48.042;12.240;2023-02-15T08:16:31;97512.16;;;2.04;68.20
12757;BME280;31601;48.042;12.240;2023-02-15T08:18:59;97515.03;;;2.00;67.52
12757;BME280;31601;48.042;12.240;2023-02-15T08:21:27;97510.94;;;1.83;66.49
12757;BME280;31601;48.042;12.240;2023-02-15T08:23:54;97512.34;;;1.32;67.08
12757;BME280;31601;48.042;12.240;2023-02-15T08:26:21;97509.47;;;1.37;68.34
12757;BME280;31601;48.042;12.240;2023-02-15T08:28:48;97507.22;;;1.45;69.19
12757;BME280;31601;48.042;12.240;2023-02-15T08:31:16;97501.66;;;1.51;68.96
12757;BME280;31601;48.042;12.240;2023-02-15T08:33:45;97510.38;;;1.50;68.84
12757;BME280;31601;48.042;12.240;2023-02-15T08:36:15;97502.47;;;1.93;68.08
12757;BME280;31601;48.042;12.240;2023-02-15T08:38:42;97496.91;;;2.00;67.64
12757;BME280;31601;48.042;12.240;2023-02-15T08:41:14;97495.03;;;2.29;66.75
12757;BME280;31601;48.042;12.240;2023-02-15T08:43:42;97483.72;;;2.30;66.42
12757;BME280;31601;48.042;12.240;2023-02-15T08:46:11;97489.94;;;2.40;66.28
12757;BME280;31601;48.042;12.240;2023-02-15T08:48:38;97494.72;;;2.59;66.25
12757;BME280;31601;48.042;12.240;2023-02-15T08:51:08;97497.22;;;2.86;65.76
12757;BME280;31601;48.042;12.240;2023-02-15T08:53:37;97492.66;;;3.03;65.28
12757;BME280;31601;48.042;12.240;2023-02-15T08:56:04;97496.56;;;3.09;64.40
12757;BME280;31601;48.042;12.240;2023-02-15T08:58:30;97499.38;;;3.05;64.16
12757;BME280;31601;48.042;12.240;2023-02-15T09:00:57;97498.84;;;3.13;63.76
12757;BME280;31601;48.042;12.240;2023-02-15T09:03:23;97503.00;;;3.16;63.52
12757;BME280;31601;48.042;12.240;2023-02-15T09:05:50;97504.78;;;3.02;63.30
12757;BME280;31601;48.042;12.240;2023-02-15T09:08:18;97503.28;;;3.24;63.70
12757;BME280;31601;48.042;12.240;2023-02-15T09:10:45;97507.06;;;2.68;64.02
12757;BME280;31601;48.042;12.240;2023-02-15T09:13:11;97499.31;;;2.81;64.09
12757;BME280;31601;48.042;12.240;2023-02-15T09:15:38;97498.13;;;3.11;64.39
12757;BME280;31601;48.042;12.240;2023-02-15T09:18:04;97499.28;;;3.20;64.12
12757;BME280;31601;48.042;12.240;2023-02-15T09:20:35;97499.41;;;3.55;63.72
12757;BME280;31601;48.042;12.240;2023-02-15T09:23:02;97494.22;;;3.80;63.06
12757;BME280;31601;48.042;12.240;2023-02-15T09:25:29;97496.69;;;3.57;62.79
12757;BME280;31601;48.042;12.240;2023-02-15T09:27:56;97503.41;;;3.22;62.11
12757;BME280;31601;48.042;12.240;2023-02-15T09:30:22;97504.66;;;3.30;63.12
12757;BME280;31601;48.042;12.240;2023-02-15T09:32:49;97508.44;;;3.00;63.86
12757;BME280;31601;48.042;12.240;2023-02-15T09:35:15;97504.16;;;2.60;65.05
12757;BME280;31601;48.042;12.240;2023-02-15T09:37:41;97505.22;;;2.71;64.30
12757;BME280;31601;48.042;12.240;2023-02-15T09:40:11;97509.53;;;3.09;63.98
12757;BME280;31601;48.042;12.240;2023-02-15T09:43:10;97504.53;;;2.28;65.17
12757;BME280;31601;48.042;12.240;2023-02-15T09:46:05;97505.28;;;2.30;65.34
12757;BME280;31601;48.042;12.240;2023-02-15T09:48:41;97506.72;;;2.35;65.97
12757;BME280;31601;48.042;12.240;2023-02-15T09:51:28;97508.19;;;2.39;66.38
12757;BME280;31601;48.042;12.240;2023-02-15T09:54:16;97508.44;;;2.61;66.74
12757;BME280;31601;48.042;12.240;2023-02-15T09:56:51;97503.31;;;3.11;65.65
12757;BME280;31601;48.042;12.240;2023-02-15T09:59:26;97496.91;;;3.54;64.63
12757;BME280;31601;48.042;12.240;2023-02-15T10:02:08;97500.94;;;3.58;62.89
12757;BME280;31601;48.042;12.240;2023-02-15T10:04:52;97489.72;;;4.06;62.37
12757;BME280;31601;48.042;12.240;2023-02-15T10:07:32;97479.22;;;4.07;62.52
12757;BME280;31601;48.042;12.240;2023-02-15T10:10:11;97487.59;;;3.75;61.99
12757;BME280;31601;48.042;12.240;2023-02-15T10:12:54;97491.72;;;4.02;61.84
12757;BME280;31601;48.042;12.240;2023-02-15T10:15:30;97481.78;;;3.96;61.69
12757;BME280;31601;48.042;12.240;2023-02-15T10:18:15;97485.91;;;4.23;61.31
12757;BME280;31601;48.042;12.240;2023-02-15T10:20:55;97487.25;;;3.56;61.46
12757;BME280;31601;48.042;12.240;2023-02-15T10:26:32;97492.03;;;3.12;64.10
12757;BME280;31601;48.042;12.240;2023-02-15T10:29:05;97480.53;;;3.78;62.40
12757;BME280;31601;48.042;12.240;2023-02-15T10:31:41;97473.59;;;3.41;63.06
12757;BME280;31601;48.042;12.240;2023-02-15T10:34:15;97474.31;;;3.43;64.08
12757;BME280;31601;48.042;12.240;2023-02-15T10:36:53;97468.03;;;4.07;62.99
12757;BME280;31601;48.042;12.240;2023-02-15T10:39:25;97472.53;;;4.16;62.23
12757;BME280;31601;48.042;12.240;2023-02-15T10:41:57;97470.75;;;3.81;62.30
12757;BME280;31601;48.042;12.240;2023-02-15T10:44:37;97467.72;;;4.23;61.87
12757;BME280;31601;48.042;12.240;2023-02-15T10:47:22;97479.03;;;3.25;64.17
12757;BME280;31601;48.042;12.240;2023-02-15T10:50:14;97465.94;;;3.88;63.58
12757;BME280;31601;48.042;12.240;2023-02-15T10:52:54;97455.94;;;4.30;63.00
12757;BME280;31601;48.042;12.240;2023-02-15T10:55:33;97452.75;;;3.91;61.75
12757;BME280;31601;48.042;12.240;2023-02-15T10:58:12;97452.25;;;3.62;62.39
12757;BME280;31601;48.042;12.240;2023-02-15T11:00:44;97451.53;;;3.84;62.99
12757;BME280;31601;48.042;12.240;2023-02-15T11:03:29;97443.09;;;4.04;63.39
12757;BME280;31601;48.042;12.240;2023-02-15T11:06:03;97434.69;;;3.89;62.37
12757;BME280;31601;48.042;12.240;2023-02-15T11:08:33;97438.63;;;3.71;63.37
12757;BME280;31601;48.042;12.240;2023-02-15T11:11:03;97431.00;;;3.32;64.15
12757;BME280;31601;48.042;12.240;2023-02-15T11:13:34;97443.81;;;2.84;65.97
12757;BME280;31601;48.042;12.240;2023-02-15T11:16:05;97445.69;;;2.18;68.42
12757;BME280;31601;48.042;12.240;2023-02-15T11:18:37;97433.91;;;2.65;68.17
12757;BME280;31601;48.042;12.240;2023-02-15T11:21:09;97419.59;;;3.22;66.60
12757;BME280;31601;48.042;12.240;2023-02-15T11:23:41;97423.41;;;2.92;67.09
12757;BME280;31601;48.042;12.240;2023-02-15T11:26:13;97416.34;;;2.94;67.06
12757;BME280;31601;48.042;12.240;2023-02-15T11:28:45;97409.69;;;3.03;67.28
12757;BME280;31601;48.042;12.240;2023-02-15T11:31:17;97409.31;;;2.83;67.65
12757;BME280;31601;48.042;12.240;2023-02-15T11:33:47;97410.53;;;3.03;67.01
12757;BME280;31601;48.042;12.240;2023-02-15T11:36:19;97408.41;;;3.46;66.86
12757;BME280;31601;48.042;12.240;2023-02-15T11:38:49;97398.97;;;3.45;66.72
12757;BME280;31601;48.042;12.240;2023-02-15T11:41:21;97398.13;;;3.20;66.46
12757;BME280;31601;48.042;12.240;2023-02-15T11:43:55;97399.66;;;3.22;66.53
12757;BME280;31601;48.042;12.240;2023-02-15T11:46:22;97401.22;;;3.25;66.79
12757;BME280;31601;48.042;12.240;2023-02-15T11:48:50;97390.69;;;3.64;66.00
12757;BME280;31601;48.042;12.240;2023-02-15T11:51:18;97386.41;;;3.63;65.18
12757;BME280;31601;48.042;12.240;2023-02-15T11:53:48;97383.56;;;3.30;66.17
12757;BME280;31601;48.042;12.240;2023-02-15T11:56:15;97381.00;;;3.66;65.69
12757;BME280;31601;48.042;12.240;2023-02-15T11:58:45;97379.53;;;3.86;64.45
12757;BME280;31601;48.042;12.240;2023-02-15T12:01:16;97364.59;;;4.01;64.21
12757;BME280;31601;48.042;12.240;2023-02-15T12:03:47;97362.06;;;4.23;64.52
12757;BME280;31601;48.042;12.240;2023-02-15T12:06:23;97365.47;;;4.12;64.66
12757;BME280;31601;48.042;12.240;2023-02-15T12:08:55;97362.66;;;4.50;64.43
12757;BME280;31601;48.042;12.240;2023-02-15T12:11:30;97352.84;;;4.30;65.21
12757;BME280;31601;48.042;12.240;2023-02-15T12:14:00;97360.06;;;4.50;64.98
12757;BME280;31601;48.042;12.240;2023-02-15T12:16:28;97340.47;;;4.68;64.65
12757;BME280;31601;48.042;12.240;2023-02-15T12:18:59;97345.63;;;4.57;64.92
12757;BME280;31601;48.042;12.240;2023-02-15T12:21:29;97346.47;;;4.69;64.51
12757;BME280;31601;48.042;12.240;2023-02-15T12:23:58;97340.09;;;4.73;64.56
12757;BME280;31601;48.042;12.240;2023-02-15T12:26:28;97340.50;;;5.12;64.30
12757;BME280;31601;48.042;12.240;2023-02-15T12:28:57;97339.81;;;5.10;63.95
12757;BME280;31601;48.042;12.240;2023-02-15T12:31:28;97332.56;;;5.13;63.51
12757;BME280;31601;48.042;12.240;2023-02-15T12:33:59;97336.09;;;5.12;63.93
12757;BME280;31601;48.042;12.240;2023-02-15T12:36:30;97328.53;;;5.20;64.31
12757;BME280;31601;48.042;12.240;2023-02-15T12:39:16;97324.41;;;5.50;63.90
12757;BME280;31601;48.042;12.240;2023-02-15T12:41:46;97317.03;;;5.23;64.24
12757;BME280;31601;48.042;12.240;2023-02-15T12:44:17;97319.81;;;5.43;63.71
12757;BME280;31601;48.042;12.240;2023-02-15T12:46:56;97319.19;;;5.50;63.43
12757;BME280;31601;48.042;12.240;2023-02-15T12:49:23;97307.97;;;5.71;62.95
12757;BME280;31601;48.042;12.240;2023-02-15T12:51:53;97314.00;;;5.92;62.78
12757;BME280;31601;48.042;12.240;2023-02-15T12:54:29;97302.44;;;5.85;62.47
12757;BME280;31601;48.042;12.240;2023-02-15T12:56:56;97298.56;;;6.22;62.20
12757;BME280;31601;48.042;12.240;2023-02-15T12:59:23;97297.78;;;6.10;62.56
12757;BME280;31601;48.042;12.240;2023-02-15T13:01:51;97287.38;;;6.41;61.17
12757;BME280;31601;48.042;12.240;2023-02-15T13:04:22;97279.91;;;6.57;61.17
12757;BME280;31601;48.042;12.240;2023-02-15T13:06:53;97278.38;;;6.55;61.16
12757;BME280;31601;48.042;12.240;2023-02-15T13:09:25;97274.81;;;6.56;61.39
12757;BME280;31601;48.042;12.240;2023-02-15T13:11:56;97265.25;;;6.86;61.46
12757;BME280;31601;48.042;12.240;2023-02-15T13:14:28;97268.84;;;6.85;62.18
12757;BME280;31601;48.042;12.240;2023-02-15T13:16:58;97254.44;;;7.10;61.69
12757;BME280;31601;48.042;12.240;2023-02-15T13:19:31;97255.94;;;6.93;62.18
12757;BME280;31601;48.042;12.240;2023-02-15T13:22:02;97263.13;;;7.20;61.62